createdAt,value
2019-02-08T00:00:40.119Z,1.90
2019-02-08T00:01:57.571Z,1.90
2019-02-08T00:03:12.716Z,1.65
2019-02-08T00:04:26.185Z,2.00
2019-02-08T00:05:46.882Z,1.62
2019-02-08T00:07:10.651Z,1.40
2019-02-08T00:08:29.917Z,1.75
2019-02-08T00:09:38.526Z,2.20
2019-02-08T00:10:54.004Z,2.10
2019-02-08T00:12:13.754Z,2.00
2019-02-08T00:13:33.855Z,3.52
2019-02-08T00:14:47.123Z,2.30
2019-02-08T00:15:57.588Z,2.47
2019-02-08T00:17:21.904Z,3.85
2019-02-08T00:18:27.523Z,7.00
2019-02-08T00:19:42.355Z,5.00
2019-02-08T00:20:56.031Z,5.05
2019-02-08T00:22:07.198Z,4.62
2019-02-08T00:23:26.228Z,3.15
2019-02-08T00:24:29.224Z,3.35
2019-02-08T00:25:37.777Z,7.55
2019-02-08T00:26:46.032Z,5.80
2019-02-08T00:27:55.744Z,4.83
2019-02-08T00:29:17.995Z,4.08
2019-02-08T00:30:29.541Z,2.80
2019-02-08T00:31:46.487Z,5.50
2019-02-08T00:32:55.311Z,2.92
2019-02-08T00:34:04.833Z,4.58
2019-02-08T00:35:12.276Z,4.12
2019-02-08T00:36:18.821Z,3.40
2019-02-08T00:37:30.685Z,2.92
2019-02-08T00:38:38.248Z,2.65
2019-02-08T00:39:49.293Z,2.60
2019-02-08T00:40:57.995Z,5.72
2019-02-08T00:42:06.878Z,3.10
2019-02-08T00:43:13.418Z,2.35
2019-02-08T00:44:22.254Z,2.25
2019-02-08T00:45:29.979Z,3.37
2019-02-08T00:46:39.386Z,3.15
2019-02-08T00:47:47.768Z,5.28
2019-02-08T00:48:53.694Z,3.70
2019-02-08T00:50:00.849Z,3.98
2019-02-08T00:51:08.616Z,3.85
2019-02-08T00:52:17.819Z,2.47
2019-02-08T00:53:24.884Z,2.50
2019-02-08T00:54:29.663Z,3.25
2019-02-08T00:55:33.739Z,4.50
2019-02-08T00:56:37.928Z,3.92
2019-02-08T00:57:42.215Z,3.70
2019-02-08T00:58:46.358Z,3.35
2019-02-08T00:59:50.465Z,2.22
2019-02-08T01:00:54.607Z,2.60
2019-02-08T01:01:58.735Z,2.80
2019-02-08T01:03:02.890Z,2.60
2019-02-08T01:04:07.177Z,1.98
2019-02-08T01:05:13.188Z,2.42
2019-02-08T01:06:17.282Z,2.67
2019-02-08T01:07:21.390Z,3.00
2019-02-08T01:08:25.785Z,2.67
2019-02-08T01:09:33.003Z,3.85
2019-02-08T01:10:37.072Z,3.58
2019-02-08T01:11:41.219Z,2.60
2019-02-08T01:12:45.679Z,2.30
2019-02-08T01:13:50.170Z,2.40
2019-02-08T01:14:54.267Z,2.85
2019-02-08T01:15:58.327Z,2.22
2019-02-08T01:17:02.399Z,2.15
2019-02-08T01:18:06.495Z,3.70
2019-02-08T01:19:10.867Z,3.50
2019-02-08T01:20:16.711Z,3.50
2019-02-08T01:21:20.875Z,3.47
2019-02-08T01:22:25.006Z,3.47
2019-02-08T01:23:29.091Z,4.42
2019-02-08T01:24:33.164Z,3.67
2019-02-08T01:25:37.306Z,3.55
2019-02-08T01:26:41.371Z,2.37
2019-02-08T01:27:45.455Z,3.10
2019-02-08T01:28:49.531Z,4.35
2019-02-08T01:29:53.596Z,3.67
2019-02-08T01:30:57.731Z,2.17
2019-02-08T01:32:01.798Z,1.90
2019-02-08T01:33:05.897Z,1.82
2019-02-08T01:34:10.703Z,2.17
2019-02-08T01:35:15.243Z,2.87
2019-02-08T01:36:19.339Z,3.72
2019-02-08T01:37:23.466Z,5.50
2019-02-08T01:38:27.618Z,2.40
2019-02-08T01:39:31.795Z,1.90
2019-02-08T01:40:37.270Z,2.12
2019-02-08T01:41:41.392Z,2.10
2019-02-08T01:42:45.485Z,2.30
2019-02-08T01:43:49.579Z,2.55
2019-02-08T01:44:53.666Z,1.60
2019-02-08T01:45:57.736Z,2.00
2019-02-08T01:47:01.858Z,1.60
2019-02-08T01:48:06.768Z,2.67
2019-02-08T01:49:11.649Z,2.08
2019-02-08T01:50:17.996Z,2.35
2019-02-08T01:51:22.063Z,2.02
2019-02-08T01:52:26.198Z,1.85
2019-02-08T01:53:30.263Z,2.40
2019-02-08T01:54:34.344Z,2.10
2019-02-08T01:55:38.434Z,2.35
2019-02-08T01:56:42.518Z,1.92
2019-02-08T01:57:47.459Z,1.85
2019-02-08T01:58:51.521Z,2.83
2019-02-08T01:59:55.680Z,2.67
2019-02-08T02:00:59.744Z,1.92
2019-02-08T02:02:03.843Z,2.17
2019-02-08T02:03:09.391Z,2.30
2019-02-08T02:04:13.458Z,1.80
2019-02-08T02:05:17.533Z,2.20
2019-02-08T02:06:21.596Z,2.00
2019-02-08T02:07:25.667Z,2.20
2019-02-08T02:08:29.851Z,1.67
2019-02-08T02:09:33.907Z,1.90
2019-02-08T02:10:42.493Z,1.62
2019-02-08T02:11:46.560Z,1.52
2019-02-08T02:12:50.647Z,1.65
2019-02-08T02:13:54.735Z,1.80
2019-02-08T02:14:58.805Z,1.27
2019-02-08T02:16:04.133Z,1.80
2019-02-08T02:17:08.753Z,1.45
2019-02-08T02:18:13.406Z,1.45
2019-02-08T02:19:17.514Z,1.60
2019-02-08T02:20:23.602Z,1.72
2019-02-08T02:21:27.775Z,1.62
2019-02-08T02:22:31.843Z,1.60
2019-02-08T02:23:35.927Z,1.40
2019-02-08T02:24:40.028Z,1.87
2019-02-08T02:25:44.099Z,1.60
2019-02-08T02:26:48.221Z,1.60
2019-02-08T02:27:52.286Z,1.80
2019-02-08T02:28:56.379Z,2.00
2019-02-08T02:30:00.472Z,2.05
2019-02-08T02:31:04.544Z,1.90
2019-02-08T02:32:08.779Z,1.92
2019-02-08T02:33:13.365Z,2.10
2019-02-08T02:34:17.527Z,1.60
2019-02-08T02:35:21.712Z,1.82
2019-02-08T02:36:25.789Z,2.10
2019-02-08T02:37:29.948Z,1.80
2019-02-08T02:38:34.009Z,2.00
2019-02-08T02:39:38.130Z,2.15
2019-02-08T02:40:42.269Z,1.72
2019-02-08T02:41:46.326Z,1.77
2019-02-08T02:42:50.408Z,2.05
2019-02-08T02:43:54.466Z,2.00
2019-02-08T02:44:58.546Z,1.77
2019-02-08T02:46:02.707Z,1.92
2019-02-08T02:47:06.805Z,2.17
2019-02-08T02:48:12.932Z,1.90
2019-02-08T02:49:17.042Z,1.57
2019-02-08T02:50:21.248Z,1.87
2019-02-08T02:51:25.339Z,1.98
2019-02-08T02:52:29.490Z,1.87
2019-02-08T02:53:33.556Z,2.00
2019-02-08T02:54:37.644Z,1.92
2019-02-08T02:55:41.721Z,1.75
2019-02-08T02:56:45.815Z,1.87
2019-02-08T02:57:49.970Z,1.70
2019-02-08T02:58:54.139Z,2.00
2019-02-08T02:59:58.324Z,2.15
2019-02-08T03:01:02.463Z,2.33
2019-02-08T03:02:06.571Z,2.37
2019-02-08T03:03:11.304Z,2.62
2019-02-08T03:04:15.368Z,2.50
2019-02-08T03:05:19.436Z,2.45
2019-02-08T03:06:23.489Z,2.77
2019-02-08T03:07:27.595Z,2.72
2019-02-08T03:08:31.678Z,2.77
2019-02-08T03:09:35.763Z,2.52
2019-02-08T03:10:39.835Z,2.70
2019-02-08T03:11:43.907Z,2.47
2019-02-08T03:12:48.035Z,2.90
2019-02-08T03:13:52.130Z,2.27
2019-02-08T03:14:56.208Z,2.33
2019-02-08T03:16:00.411Z,2.70
2019-02-08T03:17:04.482Z,2.47
2019-02-08T03:18:08.851Z,2.33
2019-02-08T03:19:13.038Z,1.60
2019-02-08T03:20:18.058Z,2.12
2019-02-08T03:21:22.143Z,1.90
2019-02-08T03:22:26.211Z,2.50
2019-02-08T03:23:30.325Z,2.40
2019-02-08T03:24:34.395Z,2.17
2019-02-08T03:25:38.456Z,2.17
2019-02-08T03:26:42.631Z,2.47
2019-02-08T03:27:46.847Z,2.40
2019-02-08T03:28:51.067Z,2.22
2019-02-08T03:29:55.164Z,1.87
2019-02-08T03:30:59.576Z,1.92
2019-02-08T03:32:03.646Z,2.58
2019-02-08T03:33:08.097Z,2.20
2019-02-08T03:34:12.507Z,2.58
2019-02-08T03:35:19.504Z,2.27
2019-02-08T03:36:23.582Z,2.12
2019-02-08T03:37:27.663Z,2.30
2019-02-08T03:38:31.728Z,2.47
2019-02-08T03:39:35.843Z,2.35
2019-02-08T03:40:39.923Z,2.10
2019-02-08T03:41:44.056Z,2.15
2019-02-08T03:42:48.127Z,2.22
2019-02-08T03:43:52.199Z,1.85
2019-02-08T03:44:56.314Z,2.10
2019-02-08T03:46:00.390Z,1.87
2019-02-08T03:47:04.539Z,1.87
2019-02-08T03:48:09.229Z,2.00
2019-02-08T03:49:13.360Z,1.82
2019-02-08T03:50:18.191Z,1.77
2019-02-08T03:51:22.259Z,1.80
2019-02-08T03:52:26.335Z,1.77
2019-02-08T03:53:30.406Z,2.33
2019-02-08T03:54:34.496Z,1.85
2019-02-08T03:55:39.491Z,1.85
2019-02-08T03:56:43.578Z,2.22
2019-02-08T03:57:47.751Z,1.90
2019-02-08T03:58:51.831Z,1.75
2019-02-08T03:59:55.930Z,1.90
2019-02-08T04:01:05.029Z,1.60
2019-02-08T04:02:09.448Z,1.60
2019-02-08T04:03:13.579Z,1.70
2019-02-08T04:04:17.882Z,1.57
2019-02-08T04:05:21.943Z,2.10
2019-02-08T04:06:26.040Z,1.52
2019-02-08T04:07:30.109Z,1.70
2019-02-08T04:08:34.183Z,1.62
2019-02-08T04:09:38.254Z,1.70
2019-02-08T04:10:42.334Z,1.80
2019-02-08T04:11:46.435Z,1.60
2019-02-08T04:12:50.519Z,2.00
2019-02-08T04:13:54.589Z,1.95
2019-02-08T04:14:58.681Z,1.75
2019-02-08T04:16:02.866Z,1.87
2019-02-08T04:17:07.269Z,2.00
2019-02-08T04:18:11.434Z,2.00
2019-02-08T04:19:15.559Z,1.90
2019-02-08T04:20:19.667Z,1.98
2019-02-08T04:21:23.736Z,1.60
2019-02-08T04:22:27.840Z,2.20
2019-02-08T04:23:32.083Z,2.00
2019-02-08T04:24:36.163Z,1.80
2019-02-08T04:25:40.238Z,1.45
2019-02-08T04:26:44.396Z,1.80
2019-02-08T04:27:48.505Z,2.08
2019-02-08T04:28:52.642Z,2.35
2019-02-08T04:29:56.729Z,2.47
2019-02-08T04:31:00.875Z,2.80
2019-02-08T04:32:04.961Z,6.60
2019-02-08T04:33:09.676Z,3.00
2019-02-08T04:34:14.030Z,2.00
2019-02-08T04:35:18.127Z,1.80
2019-02-08T04:36:22.198Z,2.25
2019-02-08T04:37:26.267Z,1.92
2019-02-08T04:38:30.372Z,2.20
2019-02-08T04:39:34.443Z,1.90
2019-02-08T04:40:38.530Z,2.00
2019-02-08T04:41:42.599Z,1.85
2019-02-08T04:42:46.660Z,1.90
2019-02-08T04:43:50.747Z,2.22
2019-02-08T04:44:54.856Z,1.82
2019-02-08T04:45:58.984Z,1.95
2019-02-08T04:47:03.062Z,2.10
2019-02-08T04:48:07.224Z,1.98
2019-02-08T04:49:11.459Z,1.80
2019-02-08T04:50:17.642Z,1.70
2019-02-08T04:51:21.724Z,2.05
2019-02-08T04:52:25.790Z,2.02
2019-02-08T04:53:29.875Z,2.25
2019-02-08T04:54:38.417Z,2.87
2019-02-08T04:55:39.759Z,2.37
2019-02-08T04:56:43.911Z,2.30
2019-02-08T04:57:48.086Z,2.47
2019-02-08T04:58:52.213Z,2.40
2019-02-08T04:59:56.303Z,8.85
2019-02-08T05:01:00.436Z,3.10
2019-02-08T05:02:04.723Z,2.10
2019-02-08T05:03:09.159Z,2.15
2019-02-08T05:04:13.346Z,2.05
2019-02-08T05:05:17.458Z,1.95
2019-02-08T05:06:21.540Z,2.00
2019-02-08T05:07:25.619Z,1.90
2019-02-08T05:08:29.687Z,2.08
2019-02-08T05:09:33.757Z,1.92
2019-02-08T05:10:37.862Z,2.45
2019-02-08T05:11:41.926Z,1.92
2019-02-08T05:12:46.008Z,1.90
2019-02-08T05:13:50.074Z,2.08
2019-02-08T05:14:54.144Z,2.37
2019-02-08T05:15:58.251Z,1.92
2019-02-08T05:17:02.322Z,2.50
2019-02-08T05:18:06.537Z,2.10
2019-02-08T05:19:11.212Z,1.98
2019-02-08T05:20:16.405Z,1.82
2019-02-08T05:21:20.527Z,1.90
2019-02-08T05:22:24.604Z,1.80
2019-02-08T05:23:28.695Z,2.08
2019-02-08T05:24:32.773Z,2.00
2019-02-08T05:25:36.844Z,2.20
2019-02-08T05:26:40.930Z,2.27
2019-02-08T05:27:45.007Z,2.10
2019-02-08T05:28:49.086Z,2.72
2019-02-08T05:29:53.158Z,2.15
2019-02-08T05:30:57.239Z,3.20
2019-02-08T05:32:01.383Z,2.02
2019-02-08T05:33:05.775Z,2.65
2019-02-08T05:34:10.149Z,2.00
2019-02-08T05:35:14.223Z,3.58
2019-02-08T05:36:18.287Z,3.83
2019-02-08T05:37:22.394Z,2.60
2019-02-08T05:38:26.470Z,2.50
2019-02-08T05:39:30.549Z,1.95
2019-02-08T05:40:34.632Z,2.62
2019-02-08T05:41:38.698Z,2.60
2019-02-08T05:42:42.892Z,2.55
2019-02-08T05:43:46.986Z,5.53
2019-02-08T05:44:51.076Z,4.47
2019-02-08T05:45:55.155Z,3.22
2019-02-08T05:46:59.226Z,3.55
2019-02-08T05:48:03.485Z,3.10
2019-02-08T05:49:08.169Z,3.72
2019-02-08T05:50:15.063Z,3.22
2019-02-08T05:51:19.137Z,3.85
2019-02-08T05:52:23.207Z,3.77
2019-02-08T05:53:27.305Z,4.00
2019-02-08T05:54:31.379Z,3.35
2019-02-08T05:55:35.498Z,2.85
2019-02-08T05:56:39.643Z,1.95
2019-02-08T05:57:43.718Z,2.77
2019-02-08T05:58:47.819Z,2.92
2019-02-08T05:59:51.899Z,2.85
2019-02-08T06:00:57.795Z,3.00
2019-02-08T06:02:01.884Z,5.70
2019-02-08T06:03:06.828Z,4.00
2019-02-08T06:04:11.458Z,4.72
2019-02-08T06:05:15.653Z,5.53
2019-02-08T06:06:19.736Z,4.47
2019-02-08T06:07:23.875Z,4.12
2019-02-08T06:08:27.932Z,3.33
2019-02-08T06:09:35.107Z,2.62
2019-02-08T06:10:39.171Z,2.55
2019-02-08T06:11:43.249Z,3.27
2019-02-08T06:12:47.337Z,4.08
2019-02-08T06:13:51.417Z,3.52
2019-02-08T06:14:55.503Z,3.00
2019-02-08T06:15:59.555Z,2.98
2019-02-08T06:17:03.666Z,4.47
2019-02-08T06:18:09.159Z,5.25
2019-02-08T06:19:13.222Z,3.50
2019-02-08T06:20:18.962Z,4.30
2019-02-08T06:21:23.043Z,3.42
2019-02-08T06:22:27.192Z,3.00
2019-02-08T06:23:31.263Z,4.50
2019-02-08T06:24:35.343Z,5.55
2019-02-08T06:25:39.511Z,3.05
2019-02-08T06:26:43.656Z,3.60
2019-02-08T06:27:47.727Z,3.17
2019-02-08T06:28:51.815Z,2.85
2019-02-08T06:29:55.883Z,2.40
2019-02-08T06:30:59.987Z,2.85
2019-02-08T06:32:04.064Z,3.20
2019-02-08T06:33:08.294Z,2.30
2019-02-08T06:34:12.640Z,2.20
2019-02-08T06:35:18.214Z,2.35
2019-02-08T06:36:22.311Z,2.00
2019-02-08T06:37:26.424Z,1.87
2019-02-08T06:38:30.586Z,2.00
2019-02-08T06:39:34.651Z,2.33
2019-02-08T06:40:41.296Z,2.33
2019-02-08T06:41:45.390Z,3.00
2019-02-08T06:42:49.466Z,2.50
2019-02-08T06:43:53.542Z,2.55
2019-02-08T06:44:57.615Z,2.62
2019-02-08T06:46:01.692Z,2.17
2019-02-08T06:47:05.804Z,1.90
2019-02-08T06:48:12.147Z,2.25
2019-02-08T06:49:16.221Z,2.20
2019-02-08T06:50:21.404Z,2.55
2019-02-08T06:51:25.493Z,2.52
2019-02-08T06:52:29.570Z,2.75
2019-02-08T06:53:33.651Z,2.52
2019-02-08T06:54:37.728Z,2.50
2019-02-08T06:55:41.799Z,2.70
2019-02-08T06:57:17.008Z,2.25
2019-02-08T06:58:49.304Z,2.45
2019-02-08T07:00:12.290Z,2.65
2019-02-08T07:01:33.936Z,2.35
2019-02-08T07:02:56.090Z,2.15
2019-02-08T07:04:22.237Z,2.58
2019-02-08T07:05:54.575Z,3.58
2019-02-08T07:07:10.515Z,2.37
2019-02-08T07:08:45.624Z,2.42
2019-02-08T07:10:11.518Z,2.55
2019-02-08T07:11:27.238Z,2.90
2019-02-08T07:12:48.054Z,2.92
2019-02-08T07:14:02.273Z,2.50
2019-02-08T07:15:20.640Z,2.25
2019-02-08T07:16:42.455Z,2.52
2019-02-08T07:18:04.346Z,2.92
2019-02-08T07:19:36.631Z,2.67
2019-02-08T07:21:11.568Z,2.65
2019-02-08T07:22:27.850Z,2.35
2019-02-08T07:23:41.948Z,2.52
2019-02-08T07:25:08.262Z,2.98
2019-02-08T07:26:35.234Z,2.80
2019-02-08T07:27:49.255Z,2.83
2019-02-08T07:29:08.009Z,3.10
2019-02-08T07:30:19.071Z,2.90
2019-02-08T07:31:48.255Z,2.85
2019-02-08T07:33:18.911Z,2.55
2019-02-08T07:34:40.895Z,2.77
2019-02-08T07:36:07.979Z,2.52
2019-02-08T07:37:34.273Z,2.60
2019-02-08T07:38:48.242Z,2.70
2019-02-08T07:40:12.825Z,2.45
2019-02-08T07:41:51.135Z,2.40
2019-02-08T07:43:20.527Z,2.42
2019-02-08T07:44:37.799Z,2.60
2019-02-08T07:46:07.981Z,2.20
2019-02-08T07:47:34.440Z,1.75
2019-02-08T07:49:01.042Z,1.70
2019-02-08T07:50:29.746Z,1.90
2019-02-08T07:51:51.751Z,1.70
2019-02-08T07:53:33.220Z,1.87
2019-02-08T07:54:56.527Z,1.67
2019-02-08T07:56:20.880Z,1.75
2019-02-08T07:57:39.933Z,1.90
2019-02-08T07:59:06.027Z,2.37
2019-02-08T08:00:44.441Z,1.80
2019-02-08T08:02:16.392Z,1.85
2019-02-08T08:03:48.493Z,3.10
2019-02-08T08:05:02.412Z,2.42
2019-02-08T08:06:37.559Z,2.02
2019-02-08T08:08:00.442Z,1.75
2019-02-08T08:09:39.260Z,1.65
2019-02-08T08:10:52.419Z,1.90
2019-02-08T08:12:07.408Z,4.55
2019-02-08T08:13:22.632Z,6.58
2019-02-08T08:14:44.263Z,4.35
2019-02-08T08:16:13.558Z,2.80
2019-02-08T08:17:48.602Z,1.87
2019-02-08T08:19:12.123Z,2.20
2019-02-08T08:20:53.395Z,1.90
2019-02-08T08:22:14.635Z,1.87
2019-02-08T08:23:43.995Z,2.45
2019-02-08T08:25:22.242Z,2.25
2019-02-08T08:26:40.228Z,1.95
2019-02-08T08:28:18.279Z,2.10
2019-02-08T08:29:37.910Z,1.92
2019-02-08T08:30:50.804Z,1.77
2019-02-08T08:32:01.295Z,1.98
2019-02-08T08:33:38.151Z,2.10
2019-02-08T08:34:55.695Z,1.92
2019-02-08T08:36:44.387Z,2.20
2019-02-08T08:38:30.667Z,1.57
2019-02-08T08:40:22.896Z,1.92
2019-02-08T08:42:11.090Z,1.72
2019-02-08T08:43:57.783Z,1.37
2019-02-08T08:45:38.043Z,1.75
2019-02-08T08:47:48.486Z,1.80
2019-02-08T08:49:49.246Z,1.52
2019-02-08T08:51:34.835Z,1.40
2019-02-08T08:53:05.950Z,1.42
2019-02-08T08:54:50.883Z,1.72
2019-02-08T08:56:27.139Z,1.72
2019-02-08T08:58:26.867Z,1.98
2019-02-08T09:00:02.912Z,1.60
2019-02-08T09:01:57.151Z,1.42
2019-02-08T09:03:28.632Z,1.55
2019-02-08T09:05:21.191Z,1.70
2019-02-08T09:07:24.212Z,1.60
2019-02-08T09:09:14.791Z,1.80
2019-02-08T09:11:12.111Z,1.57
2019-02-08T09:13:14.929Z,1.92
2019-02-08T09:15:00.546Z,1.90
2019-02-08T09:16:53.706Z,1.57
2019-02-08T09:18:32.799Z,1.35
2019-02-08T09:20:39.716Z,1.47
2019-02-08T09:22:06.186Z,1.30
2019-02-08T09:23:53.168Z,1.30
2019-02-08T09:25:37.887Z,1.42
2019-02-08T09:27:29.107Z,1.17
2019-02-08T09:29:20.478Z,1.10
2019-02-08T09:31:09.799Z,1.00
2019-02-08T09:33:03.870Z,1.30
2019-02-08T09:35:01.018Z,1.07
2019-02-08T09:36:47.218Z,1.07
2019-02-08T09:38:17.796Z,1.17
2019-02-08T09:40:03.515Z,1.05
2019-02-08T09:41:36.666Z,1.10
2019-02-08T09:43:04.521Z,1.40
2019-02-08T09:44:51.672Z,1.30
2019-02-08T09:46:46.007Z,1.30
2019-02-08T09:48:20.318Z,1.20
2019-02-08T09:50:14.771Z,1.20
2019-02-08T09:51:47.368Z,1.02
2019-02-08T09:53:27.999Z,0.98
2019-02-08T09:55:27.690Z,1.40
2019-02-08T09:57:05.436Z,1.55
2019-02-08T09:58:53.758Z,1.10
2019-02-08T10:00:17.438Z,1.25
2019-02-08T10:01:48.920Z,1.20
2019-02-08T10:03:29.990Z,1.30
2019-02-08T10:05:26.658Z,1.22
2019-02-08T10:07:07.577Z,1.52
2019-02-08T10:08:31.414Z,1.10
2019-02-08T10:09:55.395Z,1.50
2019-02-08T10:11:46.271Z,1.17
2019-02-08T10:13:30.472Z,1.30
2019-02-08T10:15:00.344Z,1.25
2019-02-08T10:16:47.906Z,1.10
2019-02-08T10:18:57.851Z,1.17
2019-02-08T10:20:41.115Z,1.40
2019-02-08T10:22:34.738Z,1.32
2019-02-08T10:24:16.127Z,1.10
2019-02-08T10:25:57.341Z,1.27
2019-02-08T10:27:37.503Z,1.37
2019-02-08T10:29:17.523Z,1.42
2019-02-08T10:31:18.166Z,1.37
2019-02-08T10:33:05.657Z,1.10
2019-02-08T10:35:02.864Z,1.30
2019-02-08T10:36:59.763Z,1.20
2019-02-08T10:38:57.231Z,1.20
2019-02-08T10:40:53.955Z,1.20
2019-02-08T10:43:03.872Z,1.00
2019-02-08T10:44:44.814Z,1.07
2019-02-08T10:46:30.820Z,1.20
2019-02-08T10:48:05.906Z,1.10
2019-02-08T10:49:46.947Z,0.90
2019-02-08T10:51:38.575Z,1.00
2019-02-08T10:53:18.551Z,1.12
2019-02-08T10:55:12.404Z,0.95
2019-02-08T10:56:52.338Z,0.88
2019-02-08T10:58:45.490Z,1.20
2019-02-08T11:00:37.232Z,1.00
2019-02-08T11:02:37.080Z,0.93
2019-02-08T11:04:11.682Z,0.95
2019-02-08T11:05:54.962Z,0.85
2019-02-08T11:07:36.330Z,0.93
2019-02-08T11:09:22.707Z,1.12
2019-02-08T11:10:58.243Z,0.93
2019-02-08T11:12:39.217Z,1.37
2019-02-08T11:14:26.054Z,1.27
2019-02-08T11:16:41.731Z,1.22
2019-02-08T11:18:34.165Z,1.60
2019-02-08T11:19:36.799Z,1.45
2019-02-08T11:20:40.883Z,1.70
2019-02-08T11:21:45.199Z,1.82
2019-02-08T11:22:49.287Z,1.85
2019-02-08T11:23:53.388Z,1.22
2019-02-08T11:24:57.463Z,1.40
2019-02-08T11:26:01.575Z,1.22
2019-02-08T11:27:05.699Z,1.20
2019-02-08T11:28:10.333Z,0.98
2019-02-08T11:29:14.468Z,1.10
2019-02-08T11:30:18.598Z,1.77
2019-02-08T11:31:22.754Z,1.75
2019-02-08T11:32:42.489Z,1.20
2019-02-08T11:33:32.683Z,1.05
2019-02-08T11:34:36.795Z,1.25
2019-02-08T11:35:40.875Z,1.32
2019-02-08T11:36:44.963Z,1.10
2019-02-08T11:37:49.047Z,2.67
2019-02-08T11:38:53.120Z,1.37
2019-02-08T11:39:57.267Z,1.20
2019-02-08T11:41:01.351Z,1.30
2019-02-08T11:42:05.483Z,1.52
2019-02-08T11:43:09.922Z,1.95
2019-02-08T11:44:14.004Z,2.08
2019-02-08T11:45:18.770Z,3.05
2019-02-08T11:46:22.908Z,1.87
2019-02-08T11:47:27.006Z,1.70
2019-02-08T11:48:31.135Z,1.23
2019-02-08T11:49:35.263Z,2.02
2019-02-08T11:50:39.363Z,2.10
2019-02-08T11:51:43.435Z,1.42
2019-02-08T11:52:47.522Z,1.10
2019-02-08T11:53:51.591Z,1.50
2019-02-08T11:54:55.666Z,1.40
2019-02-08T11:55:59.792Z,1.40
2019-02-08T11:57:03.869Z,2.27
2019-02-08T11:58:08.091Z,1.62
2019-02-08T11:59:12.262Z,1.92
2019-02-08T12:00:21.126Z,1.57
2019-02-08T12:01:25.432Z,1.50
2019-02-08T12:02:29.507Z,1.40
2019-02-08T12:03:33.607Z,1.50
2019-02-08T12:04:37.978Z,1.25
2019-02-08T12:05:42.055Z,2.27
2019-02-08T12:06:46.163Z,3.05
2019-02-08T12:07:50.291Z,2.80
2019-02-08T12:08:54.380Z,2.42
2019-02-08T12:09:58.519Z,1.70
2019-02-08T12:11:02.640Z,2.00
2019-02-08T12:12:06.779Z,1.57
2019-02-08T12:13:11.002Z,1.62
2019-02-08T12:14:15.092Z,1.22
2019-02-08T12:15:19.175Z,1.90
2019-02-08T12:16:23.242Z,1.80
2019-02-08T12:17:27.394Z,1.45
2019-02-08T12:18:31.470Z,1.47
2019-02-08T12:19:35.546Z,1.50
2019-02-08T12:20:39.700Z,1.77
2019-02-08T12:21:43.776Z,1.40
2019-02-08T12:22:47.907Z,2.17
2019-02-08T12:23:52.146Z,1.70
2019-02-08T12:24:56.283Z,3.05
2019-02-08T12:26:00.358Z,1.60
2019-02-08T12:27:04.443Z,2.15
2019-02-08T12:28:08.702Z,1.57
2019-02-08T12:29:12.851Z,2.37
2019-02-08T12:30:23.547Z,2.00
2019-02-08T12:31:27.843Z,1.82
2019-02-08T12:32:31.906Z,1.70
2019-02-08T12:33:36.019Z,2.85
2019-02-08T12:34:40.126Z,1.80
2019-02-08T12:35:44.280Z,1.80
2019-02-08T12:36:48.428Z,2.17
2019-02-08T12:37:52.498Z,2.05
2019-02-08T12:38:56.607Z,2.08
2019-02-08T12:40:00.736Z,1.95
2019-02-08T12:41:09.683Z,1.85
2019-02-08T12:42:11.267Z,1.85
2019-02-08T12:43:15.383Z,2.30
2019-02-08T12:44:19.494Z,1.92
2019-02-08T12:45:23.592Z,1.62
2019-02-08T12:46:27.676Z,1.65
2019-02-08T12:47:31.816Z,1.70
2019-02-08T12:48:36.530Z,2.17
2019-02-08T12:49:40.838Z,1.70
2019-02-08T12:50:44.907Z,1.70
2019-02-08T12:51:48.983Z,1.98
2019-02-08T12:52:53.055Z,2.22
2019-02-08T12:53:57.136Z,1.80
2019-02-08T12:55:01.235Z,2.17
2019-02-08T12:56:05.518Z,2.22
2019-02-08T12:57:09.994Z,1.70
2019-02-08T12:58:14.051Z,1.90
2019-02-08T12:59:18.138Z,1.80
2019-02-08T13:00:22.517Z,2.42
2019-02-08T13:01:26.591Z,2.08
2019-02-08T13:02:30.675Z,1.75
2019-02-08T13:03:34.787Z,1.37
2019-02-08T13:04:38.879Z,1.67
2019-02-08T13:05:42.974Z,1.50
2019-02-08T13:06:47.048Z,2.05
2019-02-08T13:07:51.172Z,1.80
2019-02-08T13:08:55.245Z,2.00
2019-02-08T13:09:59.333Z,1.62
2019-02-08T13:11:03.434Z,1.80
2019-02-08T13:12:07.637Z,1.95
2019-02-08T13:13:11.794Z,1.80
2019-02-08T13:14:15.858Z,1.50
2019-02-08T13:15:19.943Z,1.60
2019-02-08T13:16:24.052Z,1.50
2019-02-08T13:17:28.133Z,1.70
2019-02-08T13:18:32.211Z,1.62
2019-02-08T13:19:36.292Z,1.65
2019-02-08T13:20:40.360Z,1.55
2019-02-08T13:21:44.475Z,1.35
2019-02-08T13:22:49.182Z,2.10
2019-02-08T13:23:53.511Z,1.82
2019-02-08T13:24:57.588Z,1.50
2019-02-08T13:26:01.659Z,1.80
2019-02-08T13:27:05.763Z,1.77
2019-02-08T13:28:10.122Z,1.60
2019-02-08T13:29:14.195Z,1.87
2019-02-08T13:30:20.765Z,1.77
2019-02-08T13:31:25.048Z,2.00
2019-02-08T13:32:29.207Z,1.80
2019-02-08T13:33:33.287Z,1.80
2019-02-08T13:34:37.363Z,1.62
2019-02-08T13:35:41.432Z,1.80
2019-02-08T13:36:45.503Z,1.12
2019-02-08T13:37:49.628Z,1.60
2019-02-08T13:38:53.720Z,1.40
2019-02-08T13:39:57.786Z,1.50
2019-02-08T13:41:01.869Z,1.45
2019-02-08T13:42:06.137Z,1.82
2019-02-08T13:43:11.061Z,1.62
2019-02-08T13:44:15.183Z,2.12
2019-02-08T13:45:19.263Z,2.12
2019-02-08T13:46:23.334Z,1.30
2019-02-08T13:47:27.407Z,2.25
2019-02-08T13:48:31.589Z,1.87
2019-02-08T13:49:35.659Z,1.50
2019-02-08T13:50:39.733Z,2.20
2019-02-08T13:51:43.803Z,1.90
2019-02-08T13:52:48.523Z,1.75
2019-02-08T13:53:52.660Z,1.70
2019-02-08T13:54:56.732Z,1.90
2019-02-08T13:56:00.811Z,1.87
2019-02-08T13:57:04.878Z,1.90
2019-02-08T13:58:09.193Z,1.62
2019-02-08T13:59:13.336Z,1.95
2019-02-08T14:00:26.288Z,1.95
2019-02-08T14:01:30.372Z,2.60
2019-02-08T14:02:34.482Z,1.80
2019-02-08T14:03:38.547Z,2.55
2019-02-08T14:04:42.676Z,2.27
2019-02-08T14:05:46.768Z,2.37
2019-02-08T14:06:50.859Z,2.15
2019-02-08T14:07:54.933Z,4.47
2019-02-08T14:08:58.999Z,4.33
2019-02-08T14:10:03.108Z,3.25
2019-02-08T14:11:07.367Z,2.33
2019-02-08T14:12:11.687Z,4.00
2019-02-08T14:13:15.764Z,3.72
2019-02-08T14:14:19.831Z,5.95
2019-02-08T14:15:23.995Z,4.10
2019-02-08T14:16:28.068Z,4.42
2019-02-08T14:17:32.142Z,4.87
2019-02-08T14:18:36.615Z,4.20
2019-02-08T14:19:40.687Z,2.95
2019-02-08T14:20:44.782Z,5.45
2019-02-08T14:21:48.898Z,15.90
2019-02-08T14:22:53.042Z,4.37
2019-02-08T14:23:57.100Z,3.85
2019-02-08T14:25:01.176Z,3.58
2019-02-08T14:26:05.293Z,3.98
2019-02-08T14:27:09.968Z,3.90
2019-02-08T14:28:14.044Z,3.37
2019-02-08T14:29:18.128Z,3.85
2019-02-08T14:30:30.789Z,4.25
2019-02-08T14:31:35.002Z,2.77
2019-02-08T14:32:39.082Z,2.83
2019-02-08T14:33:43.154Z,3.30
2019-02-08T14:34:47.234Z,3.27
2019-02-08T14:35:51.429Z,3.20
2019-02-08T14:36:55.524Z,2.30
2019-02-08T14:38:00.440Z,3.62
2019-02-08T14:39:08.014Z,2.98
2019-02-08T14:40:14.867Z,2.70
2019-02-08T14:41:20.281Z,2.45
2019-02-08T14:42:24.514Z,2.80
2019-02-08T14:43:28.597Z,2.77
2019-02-08T14:44:33.195Z,2.30
2019-02-08T14:45:37.275Z,3.27
2019-02-08T14:46:41.380Z,3.67
2019-02-08T14:47:45.535Z,3.15
2019-02-08T14:48:49.643Z,3.25
2019-02-08T14:49:53.743Z,2.98
2019-02-08T14:50:57.831Z,2.40
2019-02-08T14:52:01.895Z,2.50
2019-02-08T14:53:06.182Z,2.35
2019-02-08T14:54:10.438Z,2.30
2019-02-08T14:55:15.028Z,2.30
2019-02-08T14:56:19.095Z,3.08
2019-02-08T14:57:23.164Z,3.12
2019-02-08T14:58:27.263Z,2.92
2019-02-08T14:59:31.340Z,3.08
2019-02-08T15:00:35.452Z,2.60
2019-02-08T15:01:39.514Z,2.37
2019-02-08T15:02:43.583Z,2.33
2019-02-08T15:03:47.688Z,2.90
2019-02-08T15:04:51.852Z,2.55
2019-02-08T15:05:55.965Z,3.37
2019-02-08T15:07:00.104Z,3.08
2019-02-08T15:08:04.218Z,2.30
2019-02-08T15:09:11.014Z,1.80
2019-02-08T15:10:26.747Z,2.52
2019-02-08T15:11:30.827Z,2.22
2019-02-08T15:12:34.895Z,2.30
2019-02-08T15:13:38.979Z,2.10
2019-02-08T15:14:43.135Z,2.45
2019-02-08T15:15:47.198Z,2.15
2019-02-08T15:16:51.271Z,3.20
2019-02-08T15:17:55.344Z,2.80
2019-02-08T15:18:59.422Z,2.42
2019-02-08T15:20:03.715Z,2.20
2019-02-08T15:21:08.182Z,2.10
2019-02-08T15:22:12.755Z,1.95
2019-02-08T15:23:16.824Z,2.45
2019-02-08T15:24:20.907Z,2.25
2019-02-08T15:25:25.010Z,2.52
2019-02-08T15:26:29.095Z,2.30
2019-02-08T15:27:33.174Z,2.22
2019-02-08T15:28:37.264Z,2.30
2019-02-08T15:29:41.338Z,2.08
2019-02-08T15:30:45.498Z,2.52
2019-02-08T15:31:49.567Z,2.30
2019-02-08T15:32:53.644Z,2.10
2019-02-08T15:33:57.720Z,2.37
2019-02-08T15:35:01.921Z,2.25
2019-02-08T15:36:06.018Z,2.00
2019-02-08T15:37:10.566Z,2.00
2019-02-08T15:38:14.637Z,2.10
2019-02-08T15:39:18.710Z,1.70
2019-02-08T15:40:40.151Z,2.02
2019-02-08T15:41:44.259Z,2.15
2019-02-08T15:42:48.340Z,2.08
2019-02-08T15:43:52.498Z,2.00
2019-02-08T15:44:56.639Z,2.22
2019-02-08T15:46:03.013Z,1.67
2019-02-08T15:47:07.411Z,1.92
2019-02-08T15:48:11.815Z,1.82
2019-02-08T15:49:15.968Z,1.98
2019-02-08T15:50:20.122Z,1.95
2019-02-08T15:51:24.200Z,1.82